Time;durP1;ratioP1;P1;durP2;ratioP2;P2;SDS_P1;SDS_P2;PMS_P1;PMS_P2;Temp;Humidity;BMP_temperature;BMP_pressure;BME280_temperature;BME280_humidity;BME280_pressure;Samples;Min_cycle;Max_cycle;Signal;HPM_P1;HPM_P2
2021/01/30 00:00:34;;;;;;;20.70;11.10;;;4.00;99.90;;;;;;5065159;28;20037;-54
2021/01/30 00:03:00;;;;;;;18.13;11.68;;;3.90;99.90;;;;;;5075590;28;20054;-53
2021/01/30 00:05:28;;;;;;;21.17;11.23;;;3.90;99.90;;;;;;5067718;28;20028;-53
2021/01/30 00:07:54;;;;;;;16.33;10.80;;;3.90;99.90;;;;;;5065473;28;20492;-54
2021/01/30 00:10:20;;;;;;;18.85;10.88;;;3.90;99.90;;;;;;5064640;28;20043;-53
2021/01/30 00:12:46;;;;;;;18.38;9.95;;;3.90;99.90;;;;;;5069213;28;20040;-55
2021/01/30 00:15:15;;;;;;;17.77;10.18;;;3.90;99.90;;;;;;5067474;28;20025;-50
2021/01/30 00:17:41;;;;;;;19.85;10.43;;;3.90;99.90;;;;;;5068744;28;20040;-53
2021/01/30 00:20:08;;;;;;;16.10;9.90;;;3.90;99.90;;;;;;5067805;28;20048;-54
2021/01/30 00:22:34;;;;;;;21.55;11.65;;;3.90;99.90;;;;;;5066566;28;20028;-54
2021/01/30 00:25:00;;;;;;;16.05;10.40;;;3.90;99.90;;;;;;5068587;28;20035;-56
2021/01/30 00:27:26;;;;;;;19.83;11.80;;;3.90;99.90;;;;;;5067422;28;20028;-53
2021/01/30 00:29:51;;;;;;;18.63;11.15;;;3.80;99.90;;;;;;5068425;28;20024;-55
2021/01/30 00:32:20;;;;;;;17.17;10.90;;;3.80;99.90;;;;;;5066833;28;20465;-54
2021/01/30 00:34:46;;;;;;;19.60;11.88;;;3.80;99.90;;;;;;5064163;28;20028;-54
2021/01/30 00:37:21;;;;;;;18.35;10.85;;;3.70;99.90;;;;;;5066366;28;20487;-54
2021/01/30 00:39:48;;;;;;;23.70;12.23;;;3.60;99.90;;;;;;5068485;28;20453;-52
2021/01/30 00:42:17;;;;;;;21.25;11.60;;;3.60;99.90;;;;;;5066975;28;20536;-52
2021/01/30 00:44:43;;;;;;;20.15;12.40;;;3.60;99.90;;;;;;5065535;28;20075;-53
2021/01/30 00:47:10;;;;;;;20.58;12.10;;;3.60;99.90;;;;;;5067384;28;20040;-51
2021/01/30 00:49:39;;;;;;;19.90;10.93;;;3.60;99.90;;;;;;5067520;28;20518;-54
2021/01/30 00:52:05;;;;;;;19.73;11.93;;;3.60;99.90;;;;;;5067524;28;20029;-51
2021/01/30 00:54:31;;;;;;;20.27;11.80;;;3.50;99.90;;;;;;5068420;28;20032;-53
2021/01/30 00:56:57;;;;;;;19.25;10.32;;;3.50;99.90;;;;;;5067530;28;20492;-55
2021/01/30 00:59:23;;;;;;;19.05;10.60;;;3.50;99.90;;;;;;5068175;28;20127;-57
2021/01/30 01:01:50;;;;;;;18.80;10.35;;;3.50;99.90;;;;;;5066946;28;20040;-55
2021/01/30 01:04:17;;;;;;;16.55;10.00;;;3.50;99.90;;;;;;5066214;28;20033;-55
2021/01/30 01:06:43;;;;;;;18.45;10.90;;;3.60;99.90;;;;;;5048299;28;20056;-52
2021/01/30 01:09:09;;;;;;;18.98;10.80;;;3.60;99.90;;;;;;5050163;28;20099;-52
2021/01/30 01:11:36;;;;;;;19.42;10.88;;;3.60;99.90;;;;;;5071208;28;20035;-54
2021/01/30 01:14:03;;;;;;;17.20;9.70;;;3.60;99.90;;;;;;5072150;28;20119;-53
2021/01/30 01:16:29;;;;;;;16.55;9.45;;;3.70;99.90;;;;;;5070907;28;20032;-51
2021/01/30 01:18:55;;;;;;;18.58;9.93;;;3.70;99.90;;;;;;5072459;28;20384;-53
2021/01/30 01:21:20;;;;;;;19.50;9.38;;;3.70;99.90;;;;;;5071066;28;20068;-53
2021/01/30 01:23:47;;;;;;;17.95;10.13;;;3.70;99.90;;;;;;5070695;28;20029;-49
2021/01/30 01:26:15;;;;;;;16.88;9.38;;;3.60;99.90;;;;;;5070966;28;20033;-51
2021/01/30 01:28:41;;;;;;;15.63;9.32;;;3.60;99.90;;;;;;5069912;28;20073;-51
2021/01/30 01:31:07;;;;;;;18.63;9.32;;;3.60;99.90;;;;;;5071958;28;20486;-52
2021/01/30 01:33:33;;;;;;;15.35;9.27;;;3.60;99.90;;;;;;5070555;28;20532;-52
2021/01/30 01:35:59;;;;;;;18.02;10.05;;;3.50;99.90;;;;;;5070057;28;20040;-51
2021/01/30 01:38:26;;;;;;;16.27;9.25;;;3.60;99.90;;;;;;5071030;28;20490;-52
2021/01/30 01:40:52;;;;;;;17.90;9.70;;;3.60;99.90;;;;;;5071283;28;20505;-56
2021/01/30 01:43:24;;;;;;;17.38;10.15;;;3.50;99.90;;;;;;5070316;28;20087;-55
2021/01/30 01:46:08;;;;;;;15.43;9.43;;;3.50;99.90;;;;;;5071164;28;20040;-55
2021/01/30 01:48:38;;;;;;;17.02;8.90;;;3.50;99.90;;;;;;5070656;28;20036;-52
2021/01/30 01:51:07;;;;;;;15.88;8.23;;;3.60;99.90;;;;;;5068284;28;20484;-53
2021/01/30 01:53:38;;;;;;;17.08;9.93;;;3.50;99.90;;;;;;5069564;28;20028;-53
2021/01/30 01:56:13;;;;;;;17.23;9.68;;;3.50;99.90;;;;;;5069715;28;20028;-54
2021/01/30 01:58:44;;;;;;;14.90;8.80;;;3.50;99.90;;;;;;5069869;28;20043;-52
2021/01/30 02:01:10;;;;;;;19.85;9.45;;;3.50;99.90;;;;;;5068941;28;20155;-56
2021/01/30 02:03:38;;;;;;;14.90;8.32;;;3.60;99.90;;;;;;5069443;28;20099;-55
2021/01/30 02:06:04;;;;;;;15.55;8.43;;;3.50;99.90;;;;;;5069724;28;20032;-51
2021/01/30 02:08:33;;;;;;;15.95;8.73;;;3.50;99.90;;;;;;5071152;28;20063;-54
2021/01/30 02:10:59;;;;;;;16.55;7.97;;;3.60;99.90;;;;;;5051759;28;20033;-52
2021/01/30 02:13:39;;;;;;;14.00;7.03;;;3.60;99.90;;;;;;5071026;28;20434;-53
2021/01/30 02:16:09;;;;;;;14.98;7.78;;;3.60;99.90;;;;;;5052614;28;20564;-56
2021/01/30 02:18:52;;;;;;;16.27;8.25;;;3.70;99.90;;;;;;5070082;28;20037;-56
2021/01/30 02:21:54;;;;;;;15.98;7.10;;;3.70;99.90;;;;;;5058238;28;20079;-53
2021/01/30 02:24:56;;;;;;;15.40;7.97;;;3.60;99.90;;;;;;5069072;28;20047;-50
2021/01/30 02:27:46;;;;;;;16.00;8.48;;;3.60;99.90;;;;;;5069429;28;20096;-57
2021/01/30 02:30:34;;;;;;;21.67;9.45;;;3.60;99.90;;;;;;5070047;28;20101;-50
2021/01/30 02:33:37;;;;;;;19.10;9.23;;;3.60;99.90;;;;;;5062524;28;20131;-50
2021/01/30 02:36:14;;;;;;;15.35;6.78;;;3.50;99.90;;;;;;5072349;28;20119;-51
2021/01/30 02:38:54;;;;;;;15.98;8.25;;;3.50;99.90;;;;;;5071490;28;20186;-50
2021/01/30 02:43:58;;;;;;;18.60;7.72;;;3.50;99.90;;;;;;4960719;22;20098;-53
2021/01/30 02:46:29;;;;;;;13.27;7.18;;;3.50;99.90;;;;;;5070353;28;20403;-57
2021/01/30 02:49:10;;;;;;;15.55;7.05;;;3.50;99.90;;;;;;5070526;28;20032;-57
2021/01/30 02:51:41;;;;;;;13.10;7.18;;;3.50;99.90;;;;;;5070228;28;20463;-54
2021/01/30 02:54:08;;;;;;;16.00;7.95;;;3.50;99.90;;;;;;5070189;28;20154;-55
2021/01/30 02:56:34;;;;;;;13.80;7.80;;;3.50;99.90;;;;;;5070043;28;20048;-54
2021/01/30 02:59:08;;;;;;;14.95;8.07;;;3.50;99.90;;;;;;5068699;28;20036;-54
2021/01/30 03:01:38;;;;;;;14.38;7.57;;;3.50;99.90;;;;;;5070143;28;20522;-55
2021/01/30 03:04:09;;;;;;;17.00;8.77;;;3.60;99.90;;;;;;5069962;28;20037;-54
2021/01/30 03:06:51;;;;;;;15.02;7.63;;;3.60;99.90;;;;;;5069942;28;20083;-55
2021/01/30 03:09:28;;;;;;;17.30;8.63;;;3.50;99.90;;;;;;5070045;28;20041;-54
2021/01/30 03:12:10;;;;;;;17.55;8.60;;;3.40;99.90;;;;;;5069926;28;20028;-54
2021/01/30 03:14:47;;;;;;;14.80;7.93;;;3.40;99.90;;;;;;5069836;28;20036;-53
2021/01/30 03:17:14;;;;;;;16.58;7.90;;;3.40;99.90;;;;;;5069582;28;20053;-55
2021/01/30 03:19:40;;;;;;;13.68;6.85;;;3.40;99.90;;;;;;5069650;28;20431;-56
2021/01/30 03:22:09;;;;;;;15.27;6.68;;;3.40;99.90;;;;;;5069595;28;20072;-54
2021/01/30 03:24:45;;;;;;;15.48;6.95;;;3.40;99.90;;;;;;5069643;28;20081;-55
2021/01/30 03:27:18;;;;;;;17.30;6.97;;;3.40;99.90;;;;;;5069543;28;20024;-51
2021/01/30 03:29:44;;;;;;;15.93;7.07;;;3.40;99.90;;;;;;5069362;28;20522;-57
2021/01/30 03:32:10;;;;;;;15.02;7.30;;;3.40;99.90;;;;;;5069569;28;20036;-54
2021/01/30 03:34:35;;;;;;;12.65;6.47;;;3.40;99.90;;;;;;5069300;28;20123;-53
2021/01/30 03:37:01;;;;;;;12.93;6.45;;;3.40;99.90;;;;;;5069221;28;20103;-51
2021/01/30 03:39:27;;;;;;;14.13;6.45;;;3.50;99.90;;;;;;5069354;28;20123;-57
2021/01/30 03:41:52;;;;;;;13.30;6.20;;;3.50;99.90;;;;;;5071403;28;20032;-54
2021/01/30 03:44:18;;;;;;;14.65;6.13;;;3.50;99.90;;;;;;5071548;28;20119;-55
2021/01/30 03:46:44;;;;;;;54.28;21.88;;;3.60;99.90;;;;;;5069474;28;20342;-54
2021/01/30 03:49:09;;;;;;;21.65;9.45;;;3.50;99.90;;;;;;5069393;28;20488;-55
2021/01/30 03:51:35;;;;;;;14.68;6.43;;;3.50;99.90;;;;;;5069302;28;20029;-58
2021/01/30 03:54:01;;;;;;;10.80;5.75;;;3.50;99.90;;;;;;5068988;28;20384;-55
2021/01/30 03:56:27;;;;;;;12.90;5.88;;;3.50;99.90;;;;;;5069226;28;20044;-55
2021/01/30 03:58:53;;;;;;;11.13;6.00;;;3.50;99.90;;;;;;5069314;28;20037;-56
2021/01/30 04:01:18;;;;;;;13.35;6.43;;;3.40;99.90;;;;;;5069076;28;20066;-55
2021/01/30 04:03:47;;;;;;;12.73;6.38;;;3.50;99.90;;;;;;5069167;28;20072;-54
2021/01/30 04:06:14;;;;;;;10.15;5.47;;;3.50;99.90;;;;;;5068838;28;20036;-54
2021/01/30 04:08:40;;;;;;;10.32;6.13;;;3.40;99.90;;;;;;5068751;28;20381;-55
2021/01/30 04:11:06;;;;;;;13.40;5.78;;;3.50;99.90;;;;;;5068661;28;20032;-57
2021/01/30 04:13:32;;;;;;;14.77;5.18;;;3.50;99.90;;;;;;5068598;28;20111;-54
2021/01/30 04:15:57;;;;;;;11.65;5.75;;;3.50;99.90;;;;;;5068754;28;20029;-54
2021/01/30 04:18:23;;;;;;;12.85;4.75;;;3.50;99.90;;;;;;5068611;28;20031;-52
2021/01/30 04:20:49;;;;;;;11.55;5.68;;;3.50;99.90;;;;;;5068553;28;20119;-54
2021/01/30 04:23:14;;;;;;;10.23;5.20;;;3.50;99.90;;;;;;5068606;28;20048;-54
2021/01/30 04:25:40;;;;;;;8.80;4.43;;;3.50;99.90;;;;;;5068686;28;20028;-57
2021/01/30 04:28:07;;;;;;;10.60;4.35;;;3.50;99.90;;;;;;5068438;28;20028;-55
2021/01/30 04:30:33;;;;;;;9.45;4.65;;;3.50;99.90;;;;;;5068697;28;20097;-53
2021/01/30 04:33:00;;;;;;;9.77;5.20;;;3.50;99.90;;;;;;5068667;28;20032;-55
2021/01/30 04:35:31;;;;;;;12.15;4.85;;;3.60;99.90;;;;;;5068824;28;20028;-54
2021/01/30 04:37:57;;;;;;;10.25;4.90;;;3.50;99.90;;;;;;5068526;28;20028;-50
2021/01/30 04:40:28;;;;;;;11.40;4.57;;;3.50;99.90;;;;;;5068397;28;20075;-54
2021/01/30 04:43:11;;;;;;;10.23;5.18;;;3.50;99.90;;;;;;5067864;28;20052;-56
2021/01/30 04:45:42;;;;;;;8.65;4.90;;;3.50;99.90;;;;;;5068331;28;20044;-53
2021/01/30 04:48:26;;;;;;;9.77;5.00;;;3.50;99.90;;;;;;5068338;28;20044;-56
2021/01/30 04:50:59;;;;;;;11.38;5.57;;;3.50;99.90;;;;;;5068720;28;20540;-56
2021/01/30 04:53:30;;;;;;;11.18;5.55;;;3.40;99.90;;;;;;5068308;28;20040;-55
2021/01/30 04:56:05;;;;;;;15.30;6.38;;;3.40;99.90;;;;;;5068296;28;20081;-57
2021/01/30 04:58:50;;;;;;;10.07;5.38;;;3.40;99.90;;;;;;5068291;28;20064;-56
2021/01/30 05:01:31;;;;;;;7.30;4.20;;;3.40;99.90;;;;;;5068062;28;20036;-55
2021/01/30 05:04:20;;;;;;;9.52;4.32;;;3.40;99.90;;;;;;5068546;28;20058;-56
2021/01/30 05:07:12;;;;;;;10.52;5.28;;;3.40;99.90;;;;;;5068168;28;20116;-55
2021/01/30 05:09:40;;;;;;;11.57;5.03;;;3.50;99.90;;;;;;5046123;28;20052;-54
2021/01/30 05:12:27;;;;;;;7.10;3.50;;;3.50;99.90;;;;;;5068084;28;20036;-53
2021/01/30 05:15:20;;;;;;;11.27;3.83;;;3.50;99.90;;;;;;5068275;28;20043;-55
2021/01/30 05:18:27;;;;;;;7.30;3.53;;;3.50;99.90;;;;;;5062233;28;20028;-54
2021/01/30 05:21:17;;;;;;;6.28;3.38;;;3.50;99.90;;;;;;5068307;28;20397;-54
2021/01/30 05:23:52;;;;;;;6.47;2.92;;;3.60;99.90;;;;;;5068125;28;20178;-57
2021/01/30 05:26:25;;;;;;;8.45;3.55;;;3.60;99.90;;;;;;5067909;28;20501;-55
2021/01/30 05:29:09;;;;;;;7.65;3.17;;;3.60;99.90;;;;;;5068001;28;20273;-57
2021/01/30 05:32:03;;;;;;;6.47;3.05;;;3.50;99.90;;;;;;5067911;28;20410;-54
2021/01/30 05:35:02;;;;;;;4.57;3.03;;;3.50;99.90;;;;;;5068086;28;20036;-55
2021/01/30 05:37:36;;;;;;;8.90;3.60;;;3.40;99.90;;;;;;5060128;28;20041;-54
2021/01/30 05:40:25;;;;;;;7.57;3.42;;;3.40;99.90;;;;;;5067876;28;20407;-57
2021/01/30 05:43:16;;;;;;;6.43;3.42;;;3.40;99.90;;;;;;5067719;28;20110;-56
2021/01/30 05:45:47;;;;;;;7.85;3.22;;;3.30;99.90;;;;;;5067851;28;20174;-53
2021/01/30 05:48:35;;;;;;;5.80;2.72;;;3.40;99.90;;;;;;5068004;28;20415;-52
2021/01/30 05:51:24;;;;;;;9.38;4.30;;;3.40;99.90;;;;;;5067704;28;20037;-55
2021/01/30 05:53:50;;;;;;;6.93;3.35;;;3.40;99.90;;;;;;5067847;28;20691;-56
2021/01/30 05:56:16;;;;;;;7.80;3.47;;;3.50;99.90;;;;;;5070147;28;20243;-50
2021/01/30 05:58:44;;;;;;;8.05;4.18;;;3.50;99.90;;;;;;5072748;28;20073;-57
2021/01/30 06:01:16;;;;;;;8.45;4.35;;;3.50;99.90;;;;;;5070083;28;20346;-53
2021/01/30 06:04:00;;;;;;;6.93;3.15;;;3.60;99.90;;;;;;5071289;28;20028;-56
2021/01/30 06:06:30;;;;;;;7.60;3.47;;;3.60;99.90;;;;;;5070398;28;20070;-56
2021/01/30 06:09:06;;;;;;;9.15;4.32;;;3.60;99.90;;;;;;5070994;28;20248;-55
2021/01/30 06:11:47;;;;;;;7.75;4.43;;;3.60;99.90;;;;;;5067179;28;20484;-56
2021/01/30 06:14:32;;;;;;;10.68;4.40;;;3.60;99.90;;;;;;5068925;28;20093;-55
2021/01/30 06:17:01;;;;;;;10.20;3.67;;;3.70;99.90;;;;;;5070923;28;20388;-56
2021/01/30 06:19:34;;;;;;;10.80;4.32;;;3.60;99.90;;;;;;5068667;28;20086;-55
2021/01/30 06:22:18;;;;;;;7.80;4.38;;;3.60;99.90;;;;;;5069998;28;20442;-56
2021/01/30 06:24:44;;;;;;;9.15;3.72;;;3.60;99.90;;;;;;5070737;28;20040;-57
2021/01/30 06:27:20;;;;;;;15.68;3.70;;;3.60;99.90;;;;;;5069997;28;20115;-56
2021/01/30 06:29:51;;;;;;;8.75;4.32;;;3.50;99.90;;;;;;5070772;28;20048;-55
2021/01/30 06:32:20;;;;;;;7.47;4.13;;;3.50;99.90;;;;;;5067731;28;20039;-55
2021/01/30 06:34:48;;;;;;;9.63;3.97;;;3.50;99.90;;;;;;5070253;28;20503;-56
2021/01/30 06:37:32;;;;;;;7.28;3.58;;;3.60;99.90;;;;;;5070457;28;20488;-55
2021/01/30 06:40:38;;;;;;;6.43;3.67;;;3.60;99.90;;;;;;5069186;28;20032;-56
2021/01/30 06:43:11;;;;;;;9.38;4.13;;;3.60;99.90;;;;;;5047485;28;20049;-56
2021/01/30 06:45:40;;;;;;;9.32;4.50;;;3.60;99.90;;;;;;5047426;28;20093;-55
2021/01/30 06:48:22;;;;;;;13.00;4.30;;;3.60;99.90;;;;;;5047485;28;20036;-54
2021/01/30 06:50:47;;;;;;;10.32;4.35;;;3.60;99.90;;;;;;5047478;28;20029;-57
2021/01/30 06:53:22;;;;;;;8.95;4.90;;;3.60;99.90;;;;;;5043908;28;20037;-55
2021/01/30 06:56:32;;;;;;;11.18;4.40;;;3.70;99.90;;;;;;5038424;28;20041;-52
2021/01/30 06:59:04;;;;;;;9.13;4.63;;;3.60;99.90;;;;;;5036088;28;20040;-56
2021/01/30 07:01:46;;;;;;;9.52;4.25;;;3.60;99.90;;;;;;5045939;28;20045;-57
2021/01/30 07:04:21;;;;;;;6.95;3.88;;;3.60;99.90;;;;;;5047141;28;20302;-57
2021/01/30 07:07:06;;;;;;;9.18;4.68;;;3.60;99.90;;;;;;5046739;28;20041;-56
2021/01/30 07:10:00;;;;;;;11.85;4.88;;;3.60;99.90;;;;;;5046687;28;20037;-56
2021/01/30 07:12:46;;;;;;;6.22;3.95;;;3.60;99.90;;;;;;5045726;28;20052;-57
2021/01/30 07:15:17;;;;;;;8.27;3.42;;;3.60;99.90;;;;;;5047103;28;20040;-55
2021/01/30 07:18:02;;;;;;;8.65;3.05;;;3.60;99.90;;;;;;5046691;28;20152;-56
2021/01/30 07:20:54;;;;;;;5.53;2.92;;;3.60;99.90;;;;;;5069954;28;20119;-55
2021/01/30 07:23:25;;;;;;;6.50;3.30;;;3.60;99.90;;;;;;5066607;28;20032;-56
2021/01/30 07:26:38;;;;;;;3.75;2.45;;;3.70;99.90;;;;;;5069817;28;20502;-55
2021/01/30 07:29:12;;;;;;;4.82;2.50;;;3.80;99.90;;;;;;4986354;28;20034;-52
2021/01/30 07:31:44;;;;;;;4.38;2.33;;;3.80;99.90;;;;;;4985138;28;20433;-56
2021/01/30 07:34:21;;;;;;;5.38;2.90;;;3.90;99.90;;;;;;4985255;28;20037;-52
2021/01/30 07:36:59;;;;;;;5.38;3.08;;;3.90;99.90;;;;;;4986297;28;20136;-53
2021/01/30 07:39:38;;;;;;;4.90;2.35;;;4.00;99.90;;;;;;4986092;28;20034;-55
2021/01/30 07:42:11;;;;;;;6.78;2.55;;;4.00;99.90;;;;;;4985272;28;20046;-54
2021/01/30 07:45:01;;;;;;;7.85;2.30;;;4.00;99.90;;;;;;4981648;28;20041;-51
2021/01/30 07:47:34;;;;;;;5.35;2.60;;;4.00;99.90;;;;;;4987001;28;20077;-55
2021/01/30 07:50:04;;;;;;;7.45;2.78;;;4.10;99.90;;;;;;4981712;28;20473;-55
2021/01/30 07:52:50;;;;;;;8.95;4.60;;;4.00;99.90;;;;;;4978672;28;20080;-51
2021/01/30 07:55:16;;;;;;;7.57;3.20;;;3.90;99.90;;;;;;4978244;28;20042;-51
2021/01/30 07:57:58;;;;;;;7.32;3.10;;;3.90;99.90;;;;;;4978966;28;20026;-57
2021/01/30 08:00:35;;;;;;;10.02;4.85;;;3.80;99.90;;;;;;4979710;28;20141;-57
2021/01/30 08:03:31;;;;;;;8.18;3.58;;;3.80;99.90;;;;;;5026747;28;20395;-58
2021/01/30 08:06:15;;;;;;;7.03;3.47;;;3.90;99.90;;;;;;5062277;28;20105;-54
2021/01/30 08:08:56;;;;;;;6.15;3.40;;;3.90;99.90;;;;;;5061143;28;20071;-53
2021/01/30 08:11:46;;;;;;;5.80;2.85;;;4.00;99.90;;;;;;5065763;28;20024;-57
2021/01/30 08:14:32;;;;;;;5.88;2.67;;;4.10;99.90;;;;;;5062787;28;20136;-57
2021/01/30 08:16:58;;;;;;;5.05;2.72;;;4.20;99.90;;;;;;5064479;28;20479;-52
2021/01/30 08:19:46;;;;;;;8.27;3.55;;;4.30;99.90;;;;;;5062005;28;20134;-52
2021/01/30 08:22:30;;;;;;;6.88;3.58;;;4.30;99.90;;;;;;5062835;28;20036;-53
2021/01/30 08:25:13;;;;;;;8.35;4.20;;;4.30;99.90;;;;;;5065251;28;20546;-53
2021/01/30 08:27:46;;;;;;;6.90;2.85;;;4.40;99.90;;;;;;5061672;28;20036;-57
2021/01/30 08:30:17;;;;;;;4.75;2.22;;;4.50;99.90;;;;;;5061882;28;20033;-57
2021/01/30 08:33:06;;;;;;;4.72;2.55;;;4.50;99.90;;;;;;5062934;28;20043;-56
2021/01/30 08:35:32;;;;;;;4.50;2.70;;;4.50;99.90;;;;;;5061186;28;20101;-53
2021/01/30 08:38:24;;;;;;;4.65;2.50;;;4.50;99.90;;;;;;5062641;28;20115;-52
2021/01/30 08:41:10;;;;;;;4.47;2.72;;;4.60;99.90;;;;;;5058962;28;20431;-49
2021/01/30 08:43:43;;;;;;;2.90;1.50;;;4.60;99.90;;;;;;5057986;28;20056;-53
2021/01/30 08:46:31;;;;;;;3.47;1.75;;;4.70;99.90;;;;;;5060878;28;20123;-52
2021/01/30 08:49:12;;;;;;;4.20;1.80;;;4.80;99.90;;;;;;5064575;28;20376;-54
2021/01/30 08:51:38;;;;;;;3.60;1.48;;;4.80;99.90;;;;;;5064946;28;20024;-57
2021/01/30 08:54:28;;;;;;;3.25;1.60;;;4.80;99.90;;;;;;5063692;28;20097;-55
2021/01/30 08:56:54;;;;;;;3.60;2.15;;;4.80;99.90;;;;;;5064296;28;20576;-56
2021/01/30 08:59:44;;;;;;;2.30;1.65;;;4.80;99.90;;;;;;5067170;28;20314;-55
2021/01/30 09:02:33;;;;;;;3.92;1.90;;;4.90;99.90;;;;;;5064977;28;20131;-57
2021/01/30 09:05:03;;;;;;;3.88;1.85;;;4.90;99.90;;;;;;5055072;28;20044;-54
2021/01/30 09:07:53;;;;;;;3.17;1.85;;;5.00;99.90;;;;;;5068073;28;20025;-58
2021/01/30 09:10:22;;;;;;;6.28;2.35;;;4.90;99.90;;;;;;5062849;28;20024;-57
2021/01/30 09:13:11;;;;;;;5.50;2.30;;;4.90;99.90;;;;;;5063585;28;20491;-58
2021/01/30 09:15:42;;;;;;;8.43;2.03;;;5.00;99.90;;;;;;5059184;28;20083;-58
2021/01/30 09:18:36;;;;;;;2.80;1.52;;;5.10;99.90;;;;;;5063129;28;20036;-55
2021/01/30 09:21:17;;;;;;;3.25;1.58;;;5.20;99.90;;;;;;5063208;28;20047;-56
2021/01/30 09:23:50;;;;;;;3.70;1.95;;;5.10;99.90;;;;;;5059821;28;20069;-56
2021/01/30 09:26:19;;;;;;;5.60;1.60;;;5.10;99.90;;;;;;5063924;28;20098;-57
2021/01/30 09:28:44;;;;;;;5.45;3.00;;;5.10;99.90;;;;;;5061869;28;20028;-55
2021/01/30 09:31:16;;;;;;;4.50;2.03;;;5.00;99.90;;;;;;5064837;28;20126;-56
2021/01/30 09:34:18;;;;;;;4.03;2.10;;;5.10;99.90;;;;;;5065128;28;20450;-57
2021/01/30 09:36:46;;;;;;;3.13;2.25;;;5.00;99.90;;;;;;5068385;28;20037;-55
2021/01/30 09:39:27;;;;;;;5.07;2.78;;;5.00;99.90;;;;;;5071810;28;20719;-57
2021/01/30 09:42:17;;;;;;;4.18;1.92;;;5.00;99.90;;;;;;5069117;28;20530;-58
2021/01/30 09:44:43;;;;;;;4.13;2.30;;;4.90;99.90;;;;;;5070198;28;20071;-57
2021/01/30 09:47:21;;;;;;;3.63;2.05;;;4.90;99.90;;;;;;5068061;28;20120;-55
2021/01/30 09:49:58;;;;;;;3.80;2.08;;;4.90;99.90;;;;;;5065586;28;20106;-54
2021/01/30 09:52:24;;;;;;;7.22;2.65;;;4.90;99.90;;;;;;5068991;28;20443;-58
2021/01/30 09:55:04;;;;;;;4.85;2.88;;;4.90;99.90;;;;;;5071136;28;20070;-57
2021/01/30 09:57:30;;;;;;;5.85;3.67;;;5.00;99.90;;;;;;5070018;28;20275;-57
2021/01/30 09:59:59;;;;;;;8.82;4.78;;;5.10;99.90;;;;;;5070292;28;20028;-56
2021/01/30 10:02:27;;;;;;;9.05;4.78;;;5.10;99.90;;;;;;5071635;28;20086;-56
2021/01/30 10:05:14;;;;;;;9.05;4.20;;;5.00;99.90;;;;;;5067750;28;20448;-52
2021/01/30 10:07:41;;;;;;;8.35;3.95;;;5.00;99.90;;;;;;5070692;28;20460;-57
2021/01/30 10:10:23;;;;;;;9.68;4.53;;;5.00;99.90;;;;;;5067783;28;20470;-55
2021/01/30 10:12:49;;;;;;;5.15;3.00;;;5.00;99.90;;;;;;5053625;28;20634;-55
2021/01/30 10:15:30;;;;;;;7.32;3.25;;;5.10;99.90;;;;;;5067825;28;20032;-54
2021/01/30 10:18:06;;;;;;;2.60;1.90;;;5.20;99.90;;;;;;5068211;28;20041;-55
2021/01/30 10:21:01;;;;;;;6.50;2.70;;;5.30;99.90;;;;;;5067784;28;20059;-53
2021/01/30 10:23:46;;;;;;;3.00;1.98;;;5.40;99.90;;;;;;5050629;28;20037;-57
2021/01/30 10:26:21;;;;;;;2.38;1.27;;;5.40;99.90;;;;;;5068272;28;20575;-52
2021/01/30 10:29:02;;;;;;;3.88;1.73;;;5.40;99.90;;;;;;5050605;28;20063;-52
2021/01/30 10:31:34;;;;;;;4.75;2.50;;;5.40;99.90;;;;;;5061383;28;20528;-55
2021/01/30 10:34:20;;;;;;;6.75;2.83;;;5.40;99.90;;;;;;5059104;28;20080;-58
2021/01/30 10:37:14;;;;;;;8.13;3.30;;;5.40;99.90;;;;;;5066847;28;20116;-57
2021/01/30 10:39:44;;;;;;;4.32;2.00;;;5.50;99.90;;;;;;5067450;28;20029;-56
2021/01/30 10:42:19;;;;;;;2.90;1.42;;;5.60;99.90;;;;;;5066945;28;20036;-57
2021/01/30 10:44:46;;;;;;;2.95;1.88;;;5.80;99.90;;;;;;5067832;28;20028;-59
2021/01/30 10:47:14;;;;;;;4.95;2.20;;;5.90;99.90;;;;;;5064142;28;20024;-56
2021/01/30 10:49:40;;;;;;;4.00;2.03;;;6.10;99.90;;;;;;5068156;28;20380;-57
2021/01/30 10:52:09;;;;;;;4.35;1.98;;;6.10;99.90;;;;;;5067499;28;20036;-58
2021/01/30 10:54:41;;;;;;;6.45;3.00;;;6.20;99.90;;;;;;5067593;28;20118;-59
2021/01/30 10:57:21;;;;;;;5.22;2.25;;;6.30;99.90;;;;;;5065037;28;20108;-58
2021/01/30 10:59:53;;;;;;;4.43;2.58;;;6.30;99.90;;;;;;5062946;28;20041;-58
2021/01/30 11:02:44;;;;;;;4.05;2.80;;;6.40;99.90;;;;;;5067700;28;20086;-57
2021/01/30 11:05:24;;;;;;;6.70;3.38;;;6.60;99.90;;;;;;5064011;28;20039;-53
2021/01/30 11:07:54;;;;;;;8.15;3.70;;;6.60;99.90;;;;;;5064257;28;20029;-54
2021/01/30 11:10:39;;;;;;;4.20;2.78;;;6.70;99.90;;;;;;5068579;28;20121;-58
2021/01/30 11:13:14;;;;;;;6.13;3.35;;;6.70;99.90;;;;;;5069370;28;20032;-57
2021/01/30 11:15:42;;;;;;;4.05;2.45;;;6.80;99.90;;;;;;5069833;28;20031;-58
2021/01/30 11:18:35;;;;;;;4.32;2.97;;;6.70;99.90;;;;;;5067379;28;20040;-57
2021/01/30 11:21:03;;;;;;;5.13;2.47;;;6.70;99.90;;;;;;5059634;28;20138;-57
2021/01/30 11:23:46;;;;;;;5.32;2.53;;;6.70;99.90;;;;;;5068604;28;20058;-55
2021/01/30 11:26:30;;;;;;;5.70;2.80;;;6.70;99.90;;;;;;5066146;28;20497;-55
2021/01/30 11:28:57;;;;;;;4.95;3.10;;;6.70;99.90;;;;;;5061141;28;20036;-57
2021/01/30 11:31:23;;;;;;;6.55;3.17;;;6.70;99.90;;;;;;5067384;28;20028;-56
2021/01/30 11:33:54;;;;;;;6.50;3.25;;;6.80;99.90;;;;;;5067377;28;20476;-57
2021/01/30 11:36:20;;;;;;;4.85;3.20;;;6.90;99.90;;;;;;5069158;28;20032;-57
2021/01/30 11:39:05;;;;;;;7.85;3.97;;;7.00;99.90;;;;;;5068070;28;20397;-58
2021/01/30 11:41:31;;;;;;;6.97;3.90;;;7.10;99.90;;;;;;5066830;28;20110;-56
2021/01/30 11:43:56;;;;;;;7.30;4.03;;;7.20;99.90;;;;;;5066867;28;20048;-58
2021/01/30 11:46:22;;;;;;;6.22;4.00;;;7.20;99.90;;;;;;5049477;28;20043;-57
2021/01/30 11:48:48;;;;;;;7.53;3.97;;;7.20;99.90;;;;;;5065649;28;20039;-58
2021/01/30 11:51:22;;;;;;;8.27;4.35;;;7.20;99.90;;;;;;5066249;28;20040;-56
2021/01/30 11:53:47;;;;;;;8.23;4.13;;;7.30;99.90;;;;;;5064246;28;20165;-57
2021/01/30 11:56:13;;;;;;;6.72;3.40;;;7.40;99.90;;;;;;5065506;28;20040;-56
2021/01/30 11:58:39;;;;;;;4.70;3.00;;;7.50;99.90;;;;;;5067844;28;20120;-56
2021/01/30 12:01:05;;;;;;;7.03;3.97;;;7.50;99.90;;;;;;5066528;28;20453;-56
2021/01/30 12:03:31;;;;;;;7.90;3.95;;;7.50;99.90;;;;;;5068919;28;20028;-55
2021/01/30 12:05:58;;;;;;;5.38;3.80;;;7.50;99.90;;;;;;5067446;28;20083;-56
2021/01/30 12:08:25;;;;;;;6.63;3.70;;;7.50;99.90;;;;;;5067603;28;20039;-55
2021/01/30 12:10:52;;;;;;;6.40;3.83;;;7.60;99.90;;;;;;5068951;28;20056;-57
2021/01/30 12:13:19;;;;;;;7.28;3.95;;;7.50;99.90;;;;;;5067795;28;20121;-57
2021/01/30 12:15:44;;;;;;;7.35;4.05;;;7.70;99.90;;;;;;5067442;28;20035;-56
2021/01/30 12:18:14;;;;;;;7.03;4.50;;;7.80;99.90;;;;;;5067164;28;20407;-56
2021/01/30 12:20:41;;;;;;;11.55;4.68;;;8.00;99.90;;;;;;5064223;28;20052;-54
2021/01/30 12:23:08;;;;;;;8.68;5.15;;;8.10;99.90;;;;;;5067272;28;20179;-55
2021/01/30 12:25:34;;;;;;;10.38;5.50;;;8.20;99.90;;;;;;5068944;28;20036;-56
2021/01/30 12:28:02;;;;;;;9.90;4.70;;;8.30;99.90;;;;;;5066435;28;20039;-56
2021/01/30 12:30:31;;;;;;;8.27;5.18;;;8.40;99.90;;;;;;5067742;28;20025;-57
2021/01/30 12:32:57;;;;;;;12.13;5.30;;;8.60;99.90;;;;;;5066201;28;20051;-56
2021/01/30 12:35:27;;;;;;;8.30;4.68;;;8.80;99.90;;;;;;5067035;28;20050;-58
2021/01/30 12:37:53;;;;;;;7.05;4.78;;;8.90;99.90;;;;;;5065660;28;20377;-59
2021/01/30 12:40:21;;;;;;;6.72;4.15;;;9.10;99.90;;;;;;5065088;28;20044;-57
2021/01/30 12:42:48;;;;;;;8.43;4.47;;;9.30;99.90;;;;;;5065614;28;20055;-59
2021/01/30 12:45:15;;;;;;;9.02;4.93;;;9.50;99.90;;;;;;5065938;28;20342;-59
2021/01/30 12:47:41;;;;;;;7.63;4.95;;;9.50;99.90;;;;;;5064685;28;20614;-58
2021/01/30 12:50:09;;;;;;;8.77;5.72;;;9.40;99.90;;;;;;5066062;28;20036;-55
2021/01/30 12:52:34;;;;;;;14.07;6.45;;;9.50;99.90;;;;;;5066498;28;20033;-59
2021/01/30 12:55:00;;;;;;;12.85;7.00;;;9.50;99.90;;;;;;5067807;28;20025;-58
2021/01/30 12:57:26;;;;;;;10.27;6.80;;;9.40;99.90;;;;;;5068500;28;20036;-58
2021/01/30 12:59:52;;;;;;;12.93;6.72;;;9.30;99.90;;;;;;5064881;28;20071;-55
2021/01/30 13:02:17;;;;;;;11.35;7.53;;;9.30;99.90;;;;;;5064727;28;20037;-59
2021/01/30 13:04:43;;;;;;;12.80;8.55;;;9.10;99.90;;;;;;5067255;28;20641;-52
2021/01/30 13:07:09;;;;;;;18.58;9.68;;;9.00;99.90;;;;;;5071138;28;20173;-58
2021/01/30 13:09:35;;;;;;;17.80;9.60;;;9.10;99.90;;;;;;5072137;28;20060;-56
2021/01/30 13:12:02;;;;;;;16.90;10.48;;;9.00;99.90;;;;;;5070858;28;20032;-56
2021/01/30 13:14:27;;;;;;;17.00;9.98;;;9.10;99.90;;;;;;5070830;28;20029;-58
2021/01/30 13:16:53;;;;;;;16.42;10.23;;;9.10;99.90;;;;;;5060007;28;20029;-55
2021/01/30 13:19:19;;;;;;;17.48;11.48;;;9.10;99.90;;;;;;5068336;28;20040;-54
2021/01/30 13:21:46;;;;;;;26.88;14.18;;;9.00;99.90;;;;;;5067115;28;20564;-55
2021/01/30 13:24:12;;;;;;;18.77;12.63;;;8.80;99.90;;;;;;5066725;28;20025;-57
2021/01/30 13:26:40;;;;;;;22.35;13.70;;;8.80;99.90;;;;;;5071141;28;20028;-56